createdAt,value
2022-12-18T00:01:50.780Z,60.18
2022-12-18T00:04:24.410Z,60.19
2022-12-18T00:06:51.793Z,60.61
2022-12-18T00:09:21.411Z,60.17
2022-12-18T00:11:56.071Z,60.72
2022-12-18T00:14:23.376Z,60.36
2022-12-18T00:16:52.781Z,60.39
2022-12-18T00:19:20.008Z,60.68
2022-12-18T00:21:49.308Z,60.82
2022-12-18T00:24:16.498Z,60.52
2022-12-18T00:26:46.372Z,60.63
2022-12-18T00:29:15.262Z,60.89
2022-12-18T00:31:43.467Z,60.80
2022-12-18T00:34:14.155Z,60.98
2022-12-18T00:36:42.247Z,61.03
2022-12-18T00:39:11.044Z,61.25
2022-12-18T00:41:56.246Z,60.93
2022-12-18T00:44:24.932Z,61.31
2022-12-18T00:46:51.876Z,61.35
2022-12-18T00:49:20.561Z,61.47
2022-12-18T00:51:48.198Z,61.12
2022-12-18T00:54:18.514Z,61.38
2022-12-18T00:56:51.237Z,61.01
2022-12-18T00:59:20.883Z,61.17
2022-12-18T01:01:49.354Z,60.87
2022-12-18T01:04:16.730Z,61.20
2022-12-18T01:06:43.777Z,61.09
2022-12-18T01:09:11.939Z,61.20
2022-12-18T01:11:40.826Z,61.26
2022-12-18T01:14:07.967Z,61.42
2022-12-18T01:16:35.211Z,61.55
2022-12-18T01:19:03.796Z,61.43
2022-12-18T01:21:32.382Z,61.43
2022-12-18T01:24:05.849Z,61.87
2022-12-18T01:26:35.066Z,61.91
2022-12-18T01:29:04.748Z,61.84
2022-12-18T01:31:33.349Z,61.82
2022-12-18T01:34:03.406Z,61.83
2022-12-18T01:36:32.815Z,61.97
2022-12-18T01:39:09.485Z,61.87
2022-12-18T01:41:57.606Z,61.81
2022-12-18T01:44:54.266Z,61.62
2022-12-18T01:47:26.958Z,61.78
2022-12-18T01:49:59.722Z,61.86
2022-12-18T01:52:29.238Z,61.79
2022-12-18T01:54:57.242Z,62.17
2022-12-18T01:57:28.077Z,62.14
2022-12-18T02:00:02.527Z,62.51
2022-12-18T02:02:30.488Z,62.75
2022-12-18T02:05:05.349Z,62.67
2022-12-18T02:07:43.699Z,62.64
2022-12-18T02:10:18.524Z,62.54
2022-12-18T02:12:57.495Z,62.56
2022-12-18T02:15:33.188Z,62.26
2022-12-18T02:18:06.588Z,62.70
2022-12-18T02:20:46.736Z,62.65
2022-12-18T02:23:25.436Z,62.71
2022-12-18T02:26:06.002Z,63.18
2022-12-18T02:28:38.973Z,62.81
2022-12-18T02:31:13.378Z,63.05
2022-12-18T02:33:51.365Z,62.93
2022-12-18T02:36:21.017Z,62.85
2022-12-18T02:38:48.855Z,62.93
2022-12-18T02:41:18.904Z,62.94
2022-12-18T02:43:55.961Z,62.91
2022-12-18T02:46:35.127Z,62.76
2022-12-18T02:49:13.801Z,63.07
2022-12-18T02:51:51.676Z,62.78
2022-12-18T02:54:33.366Z,63.29
2022-12-18T02:57:11.528Z,63.05
2022-12-18T02:59:43.099Z,63.18
2022-12-18T03:02:20.670Z,63.01
2022-12-18T03:04:55.652Z,62.78
2022-12-18T03:07:39.023Z,63.11
2022-12-18T03:10:14.662Z,63.09
2022-12-18T03:12:48.658Z,62.92
2022-12-18T03:15:21.981Z,63.06
2022-12-18T03:17:53.615Z,62.92
2022-12-18T03:20:26.261Z,63.37
2022-12-18T03:23:00.840Z,63.27
2022-12-18T03:25:29.111Z,63.44
2022-12-18T03:28:03.211Z,63.36
2022-12-18T03:30:34.432Z,63.32
2022-12-18T03:33:09.996Z,63.05
2022-12-18T03:35:42.750Z,62.99
2022-12-18T03:38:12.169Z,63.03
2022-12-18T03:40:49.428Z,63.16
2022-12-18T03:43:24.952Z,63.51
2022-12-18T03:45:57.948Z,63.52
2022-12-18T03:48:31.236Z,63.42
2022-12-18T03:51:06.097Z,63.66
2022-12-18T03:53:39.948Z,63.24
2022-12-18T03:56:09.562Z,63.29
2022-12-18T03:58:43.476Z,63.70
2022-12-18T04:01:15.049Z,63.76
2022-12-18T04:03:44.989Z,63.32
2022-12-18T04:06:15.437Z,63.23
2022-12-18T04:08:48.344Z,63.01
2022-12-18T04:11:21.603Z,63.18
2022-12-18T04:13:59.048Z,63.25
2022-12-18T04:16:26.440Z,63.24
2022-12-18T04:18:54.882Z,63.17
2022-12-18T04:21:22.388Z,62.67
2022-12-18T04:23:49.699Z,62.81
2022-12-18T04:26:18.592Z,63.01
2022-12-18T04:28:52.249Z,62.81
2022-12-18T04:31:21.957Z,63.33
2022-12-18T04:33:52.155Z,63.43
2022-12-18T04:36:22.079Z,63.36
2022-12-18T04:38:49.288Z,63.03
2022-12-18T04:41:17.716Z,63.09
2022-12-18T04:43:46.741Z,62.94
2022-12-18T04:46:13.929Z,62.83
2022-12-18T04:48:42.612Z,63.10
2022-12-18T04:51:13.880Z,63.26
2022-12-18T04:53:41.487Z,63.00
2022-12-18T04:56:10.724Z,62.88
2022-12-18T04:58:40.423Z,62.63
2022-12-18T05:01:09.723Z,62.67
2022-12-18T05:03:39.646Z,62.37
2022-12-18T05:06:10.411Z,62.62
2022-12-18T05:08:45.985Z,62.35
2022-12-18T05:11:16.670Z,62.60
2022-12-18T05:13:46.553Z,62.58
2022-12-18T05:16:14.101Z,62.72
2022-12-18T05:18:41.455Z,62.36
2022-12-18T05:21:12.774Z,62.50
2022-12-18T05:23:43.437Z,62.48
2022-12-18T05:26:20.444Z,62.25
2022-12-18T05:28:47.970Z,62.52
2022-12-18T05:31:16.889Z,62.14
2022-12-18T05:33:45.641Z,62.25
2022-12-18T05:36:14.738Z,62.25
2022-12-18T05:38:44.910Z,62.09
2022-12-18T05:41:14.872Z,61.99
2022-12-18T05:43:48.073Z,62.11
2022-12-18T05:46:18.514Z,62.19
2022-12-18T05:48:49.226Z,62.32
2022-12-18T05:51:26.609Z,61.94
2022-12-18T05:53:54.325Z,62.28
2022-12-18T05:56:23.415Z,62.06
2022-12-18T05:58:53.801Z,61.97
2022-12-18T06:01:24.218Z,61.81
2022-12-18T06:03:51.684Z,61.87
2022-12-18T06:06:20.515Z,61.82
2022-12-18T06:08:50.286Z,61.99
2022-12-18T06:11:21.474Z,61.92
2022-12-18T06:13:58.261Z,61.89
2022-12-18T06:16:27.088Z,62.19
2022-12-18T06:18:54.432Z,61.86
2022-12-18T06:21:21.322Z,62.17
2022-12-18T06:23:49.868Z,62.06
2022-12-18T06:26:16.975Z,62.21
2022-12-18T06:28:44.215Z,62.25
2022-12-18T06:31:11.348Z,62.15
2022-12-18T06:33:39.713Z,62.39
2022-12-18T06:36:08.900Z,62.30
2022-12-18T06:38:38.121Z,62.28
2022-12-18T06:41:08.840Z,62.07
2022-12-18T06:43:36.345Z,62.35
2022-12-18T06:46:04.766Z,62.00
2022-12-18T06:48:33.138Z,61.82
2022-12-18T06:51:02.294Z,61.93
2022-12-18T06:53:30.483Z,61.70
2022-12-18T06:56:05.181Z,62.08
2022-12-18T06:58:37.822Z,61.95
2022-12-18T07:01:07.895Z,61.49
2022-12-18T07:03:38.945Z,61.75
2022-12-18T07:06:13.981Z,61.43
2022-12-18T07:08:46.196Z,61.57
2022-12-18T07:11:16.702Z,61.25
2022-12-18T07:13:46.226Z,61.58
2022-12-18T07:16:24.407Z,61.58
2022-12-18T07:18:56.494Z,61.35
2022-12-18T07:21:25.147Z,61.28
2022-12-18T07:23:52.573Z,61.63
2022-12-18T07:26:22.053Z,61.43
2022-12-18T07:29:05.260Z,61.53
2022-12-18T07:31:36.596Z,61.84
2022-12-18T07:34:04.061Z,61.84
2022-12-18T07:36:33.068Z,61.84
2022-12-18T07:39:00.023Z,61.48
2022-12-18T07:41:27.272Z,61.10
2022-12-18T07:43:56.284Z,60.99
2022-12-18T07:46:27.949Z,61.00
2022-12-18T07:48:54.821Z,61.77
2022-12-18T07:51:26.488Z,61.06
2022-12-18T07:53:56.508Z,60.89
2022-12-18T07:56:42.981Z,61.38
2022-12-18T07:59:12.930Z,61.80
2022-12-18T08:01:41.660Z,61.46
2022-12-18T08:04:10.058Z,61.66
2022-12-18T08:06:37.263Z,61.30
2022-12-18T08:09:04.221Z,61.09
2022-12-18T08:11:31.488Z,60.84
2022-12-18T08:14:01.522Z,61.20
2022-12-18T08:16:28.761Z,60.63
2022-12-18T08:18:57.610Z,61.10
2022-12-18T08:21:26.195Z,61.25
2022-12-18T08:23:57.008Z,61.44
2022-12-18T08:26:25.910Z,61.30
2022-12-18T08:28:57.580Z,61.16
2022-12-18T08:31:34.438Z,60.97
2022-12-18T08:34:03.171Z,60.64
2022-12-18T08:36:33.388Z,60.75
2022-12-18T08:39:00.698Z,60.37
2022-12-18T08:41:30.680Z,60.56
2022-12-18T08:44:16.895Z,60.28
2022-12-18T08:46:45.631Z,60.67
2022-12-18T08:49:14.457Z,60.14
2022-12-18T08:51:41.386Z,60.07
2022-12-18T08:54:10.296Z,60.10
2022-12-18T08:56:44.204Z,59.97
2022-12-18T08:59:17.294Z,60.15
2022-12-18T09:01:47.986Z,60.14
2022-12-18T09:04:16.456Z,59.70
2022-12-18T09:06:49.311Z,59.87
2022-12-18T09:09:16.768Z,60.38
2022-12-18T09:11:45.331Z,59.81
2022-12-18T09:14:12.781Z,59.46
2022-12-18T09:16:39.729Z,59.95
2022-12-18T09:19:07.016Z,59.21
2022-12-18T09:21:37.156Z,59.23
2022-12-18T09:24:08.877Z,59.45
2022-12-18T09:26:36.724Z,58.69
2022-12-18T09:29:04.058Z,59.13
2022-12-18T09:31:34.240Z,59.92
2022-12-18T09:34:02.200Z,59.64
2022-12-18T09:36:29.236Z,60.16
2022-12-18T09:38:57.919Z,59.99
2022-12-18T09:41:40.188Z,59.35
2022-12-18T09:44:20.994Z,59.34
2022-12-18T09:47:00.689Z,58.89
2022-12-18T09:49:35.512Z,59.04
2022-12-18T09:52:12.421Z,59.01
2022-12-18T09:54:47.335Z,58.15
2022-12-18T09:57:22.723Z,57.91
2022-12-18T09:59:55.982Z,58.78
2022-12-18T10:02:26.050Z,58.46
2022-12-18T10:05:06.458Z,59.08
2022-12-18T10:07:55.266Z,59.08
2022-12-18T10:10:39.020Z,59.01
2022-12-18T10:13:16.564Z,58.68
2022-12-18T10:15:59.453Z,59.29
2022-12-18T10:18:42.048Z,58.93
2022-12-18T10:21:18.720Z,58.97
2022-12-18T10:23:55.377Z,59.13
2022-12-18T10:26:25.206Z,58.83
2022-12-18T10:28:53.131Z,58.51
2022-12-18T10:31:24.736Z,58.77
2022-12-18T10:33:57.105Z,58.92
2022-12-18T10:36:25.512Z,58.64
2022-12-18T10:38:52.757Z,58.20
2022-12-18T10:41:29.565Z,58.42
2022-12-18T10:44:18.378Z,58.80
2022-12-18T10:46:47.770Z,59.57
2022-12-18T10:49:22.507Z,59.84
2022-12-18T10:52:04.589Z,59.62
2022-12-18T10:54:33.616Z,59.47
2022-12-18T10:57:35.206Z,60.24
2022-12-18T11:00:22.340Z,60.49
2022-12-18T11:02:52.512Z,59.26
2022-12-18T11:05:28.636Z,59.60
2022-12-18T11:07:59.541Z,58.98
2022-12-18T11:10:31.675Z,59.59
2022-12-18T11:13:13.662Z,59.48
2022-12-18T11:15:42.568Z,58.02
2022-12-18T11:18:19.990Z,58.60
2022-12-18T11:21:01.397Z,58.75
2022-12-18T11:23:29.039Z,58.20
2022-12-18T11:25:59.139Z,58.97
2022-12-18T11:28:35.910Z,59.23
2022-12-18T11:31:23.055Z,58.60
2022-12-18T11:36:49.580Z,58.63
2022-12-18T11:39:24.983Z,58.39
2022-12-18T11:42:12.775Z,58.66
2022-12-18T11:44:47.684Z,58.56
2022-12-18T11:47:26.755Z,58.97
2022-12-18T11:49:58.896Z,58.99
2022-12-18T11:52:29.675Z,58.36
2022-12-18T11:55:02.465Z,59.36
2022-12-18T11:57:42.334Z,59.21
2022-12-18T12:00:18.629Z,58.33
2022-12-18T12:03:19.953Z,58.65
2022-12-18T12:06:04.439Z,58.56
2022-12-18T12:09:04.920Z,58.59
2022-12-18T12:11:57.036Z,57.96
2022-12-18T12:14:37.896Z,57.26
2022-12-18T12:17:17.838Z,57.37
2022-12-18T12:19:53.266Z,57.34
2022-12-18T12:22:31.055Z,57.45
2022-12-18T12:25:15.620Z,57.58
2022-12-18T12:27:56.218Z,57.62
2022-12-18T12:30:32.124Z,56.66
2022-12-18T12:33:24.208Z,57.12
2022-12-18T12:36:00.186Z,57.80
2022-12-18T12:38:38.165Z,57.76
2022-12-18T12:41:30.739Z,57.69
2022-12-18T12:44:01.252Z,56.37
2022-12-18T12:46:30.616Z,56.59
2022-12-18T12:49:05.328Z,57.21
2022-12-18T12:51:35.605Z,57.56
2022-12-18T12:54:07.200Z,57.71
2022-12-18T12:56:46.727Z,56.71
2022-12-18T12:59:26.885Z,56.73
2022-12-18T13:01:59.278Z,56.20
2022-12-18T13:04:52.681Z,56.95
2022-12-18T13:07:27.967Z,56.48
2022-12-18T13:10:28.709Z,56.62
2022-12-18T13:12:57.371Z,56.14
2022-12-18T13:15:39.755Z,56.02
2022-12-18T13:18:20.979Z,56.70
2022-12-18T13:20:55.168Z,56.60
2022-12-18T13:23:43.711Z,56.35
2022-12-18T13:26:33.971Z,56.93
2022-12-18T13:29:05.049Z,57.08
2022-12-18T13:32:08.823Z,56.74
2022-12-18T13:34:37.388Z,56.50
2022-12-18T13:37:44.112Z,56.62
2022-12-18T13:40:56.478Z,56.20
2022-12-18T13:43:41.356Z,56.51
2022-12-18T13:46:24.056Z,56.79
2022-12-18T13:48:56.076Z,56.91
2022-12-18T13:51:23.942Z,56.82
2022-12-18T13:53:56.225Z,56.38
2022-12-18T13:56:28.579Z,56.14
2022-12-18T13:59:23.067Z,56.09
2022-12-18T14:01:56.290Z,55.77
2022-12-18T14:04:30.688Z,56.31
2022-12-18T14:07:03.859Z,56.07
2022-12-18T14:09:37.231Z,55.65
2022-12-18T14:12:25.785Z,56.10
2022-12-18T14:14:55.146Z,55.61
2022-12-18T14:17:22.176Z,55.59
2022-12-18T14:19:51.695Z,55.69
2022-12-18T14:22:21.001Z,56.47
2022-12-18T14:25:09.591Z,56.14
2022-12-18T14:27:39.032Z,56.16
2022-12-18T14:30:24.952Z,56.67
2022-12-18T14:33:01.164Z,56.61
2022-12-18T14:35:28.556Z,56.31
2022-12-18T14:38:20.533Z,56.40
2022-12-18T14:40:58.938Z,56.38
2022-12-18T14:43:27.108Z,56.90
2022-12-18T14:46:00.808Z,56.92
2022-12-18T14:48:37.442Z,56.50
2022-12-18T14:51:07.451Z,57.24
2022-12-18T14:53:40.509Z,57.05
2022-12-18T14:56:19.748Z,57.51
2022-12-18T14:58:49.701Z,57.10
2022-12-18T15:01:28.546Z,56.77
2022-12-18T15:03:57.313Z,56.92
2022-12-18T15:06:33.630Z,56.84
2022-12-18T15:09:22.809Z,57.35
2022-12-18T15:11:57.601Z,57.49
2022-12-18T15:14:35.792Z,57.56
2022-12-18T15:17:06.971Z,57.57
2022-12-18T15:19:39.535Z,57.78
2022-12-18T15:22:21.426Z,57.80
2022-12-18T15:24:52.579Z,57.12
2022-12-18T15:27:25.508Z,57.25
2022-12-18T15:30:19.491Z,57.41
2022-12-18T15:32:49.873Z,57.84
2022-12-18T15:35:20.376Z,57.85
2022-12-18T15:37:47.933Z,57.72
2022-12-18T15:40:16.182Z,58.12
2022-12-18T15:43:05.627Z,57.96
2022-12-18T15:45:37.095Z,57.91
2022-12-18T15:48:15.687Z,58.19
2022-12-18T15:50:54.612Z,58.29
2022-12-18T15:53:26.693Z,58.79
2022-12-18T15:56:18.622Z,58.33
2022-12-18T15:58:48.505Z,58.70
2022-12-18T16:01:27.239Z,58.87
2022-12-18T16:04:00.181Z,58.95
2022-12-18T16:06:30.492Z,58.83
2022-12-18T16:09:03.771Z,59.81
2022-12-18T16:11:44.002Z,60.02
2022-12-18T16:14:19.340Z,59.74
2022-12-18T16:16:47.917Z,59.84
2022-12-18T16:19:22.126Z,60.12
2022-12-18T16:21:56.907Z,60.02
2022-12-18T16:24:26.828Z,60.05
2022-12-18T16:26:54.585Z,60.39
2022-12-18T16:29:30.110Z,60.47
2022-12-18T16:31:58.119Z,60.80
2022-12-18T16:34:32.139Z,60.55
2022-12-18T16:37:05.775Z,60.48
2022-12-18T16:39:37.416Z,60.45
2022-12-18T16:42:11.361Z,61.25
2022-12-18T16:44:43.167Z,61.05
2022-12-18T16:47:14.893Z,61.17
2022-12-18T16:49:43.786Z,62.08
2022-12-18T16:52:10.711Z,61.92
2022-12-18T16:54:40.542Z,62.11
2022-12-18T16:57:07.657Z,62.12
2022-12-18T16:59:34.753Z,62.26
2022-12-18T17:02:05.711Z,62.09
2022-12-18T17:04:34.199Z,62.52
2022-12-18T17:07:01.857Z,62.37
2022-12-18T17:09:29.749Z,62.29
2022-12-18T17:11:56.737Z,62.49
2022-12-18T17:14:25.703Z,62.72
2022-12-18T17:17:19.704Z,62.93
2022-12-18T17:19:42.202Z,62.37
2022-12-18T17:22:09.550Z,62.49
2022-12-18T17:24:37.440Z,62.51
2022-12-18T17:27:04.951Z,62.20
2022-12-18T17:29:36.411Z,62.32
2022-12-18T17:32:05.845Z,62.66
2022-12-18T17:34:44.217Z,62.32
2022-12-18T17:37:14.406Z,62.61
2022-12-18T17:39:46.451Z,62.58
2022-12-18T17:42:15.220Z,62.15
2022-12-18T17:44:43.437Z,62.43
2022-12-18T17:47:12.156Z,62.74
2022-12-18T17:49:39.447Z,63.02
2022-12-18T17:52:10.937Z,63.17
2022-12-18T17:57:28.988Z,63.20
2022-12-18T17:59:56.303Z,63.34
2022-12-18T18:02:23.289Z,63.48
2022-12-18T18:04:52.995Z,63.42
2022-12-18T18:07:23.969Z,63.37
2022-12-18T18:09:55.392Z,63.70
2022-12-18T18:12:40.906Z,63.39
2022-12-18T18:15:10.333Z,63.72
2022-12-18T18:17:37.909Z,63.32
2022-12-18T18:20:06.235Z,63.61
2022-12-18T18:22:34.757Z,63.50
2022-12-18T18:25:03.563Z,63.63
2022-12-18T18:27:36.895Z,63.71
2022-12-18T18:30:07.790Z,63.71
2022-12-18T18:32:39.718Z,63.58
2022-12-18T18:35:12.550Z,63.54
2022-12-18T18:37:53.113Z,63.33
2022-12-18T18:40:21.461Z,63.55
2022-12-18T18:42:51.593Z,63.51
2022-12-18T18:45:23.666Z,63.58
2022-12-18T18:47:50.589Z,63.77
2022-12-18T18:50:18.680Z,63.55
2022-12-18T18:52:53.165Z,63.70
2022-12-18T18:55:25.440Z,63.55
2022-12-18T18:57:52.845Z,63.60
2022-12-18T19:00:22.071Z,63.24
2022-12-18T19:02:57.697Z,63.41
2022-12-18T19:05:31.430Z,63.44
2022-12-18T19:07:59.744Z,63.27
2022-12-18T19:10:26.822Z,63.44
2022-12-18T19:13:15.711Z,63.40
2022-12-18T19:15:47.155Z,63.30
2022-12-18T19:18:17.432Z,63.51
2022-12-18T19:20:44.884Z,63.76
2022-12-18T19:23:22.439Z,63.73
2022-12-18T19:25:59.517Z,63.89
2022-12-18T19:28:40.839Z,63.63
2022-12-18T19:31:10.812Z,63.81
2022-12-18T19:33:43.673Z,63.79
2022-12-18T19:36:14.232Z,63.95
2022-12-18T19:38:45.435Z,63.83
2022-12-18T19:41:14.707Z,63.74
2022-12-18T19:43:42.422Z,63.57
2022-12-18T19:46:12.156Z,63.48
2022-12-18T19:48:39.345Z,63.87
2022-12-18T19:51:08.787Z,63.90
2022-12-18T19:53:59.943Z,63.79
2022-12-18T19:56:30.685Z,63.50
2022-12-18T19:58:57.749Z,63.56
2022-12-18T20:01:27.356Z,63.70
2022-12-18T20:03:55.955Z,63.55
2022-12-18T20:06:27.045Z,63.44
2022-12-18T20:09:00.415Z,63.54
2022-12-18T20:11:31.512Z,63.18
2022-12-18T20:14:01.985Z,63.71
2022-12-18T20:16:29.728Z,63.57
2022-12-18T20:18:57.941Z,63.49
2022-12-18T20:21:28.295Z,63.88
2022-12-18T20:24:00.218Z,63.63
2022-12-18T20:26:27.734Z,63.60
2022-12-18T20:28:58.008Z,63.66
2022-12-18T20:31:27.263Z,63.68
2022-12-18T20:34:00.210Z,63.58
2022-12-18T20:36:29.524Z,63.82
2022-12-18T20:39:02.793Z,63.60
2022-12-18T20:41:37.859Z,63.68
2022-12-18T20:44:08.520Z,63.24
2022-12-18T20:46:49.931Z,63.56
2022-12-18T20:49:16.929Z,63.47
2022-12-18T20:51:44.153Z,63.49
2022-12-18T20:54:12.536Z,63.59
2022-12-18T20:56:39.780Z,63.50
2022-12-18T20:59:07.277Z,63.00
2022-12-18T21:01:34.745Z,63.87
2022-12-18T21:04:03.208Z,63.84
2022-12-18T21:06:33.164Z,63.59
2022-12-18T21:09:02.577Z,63.35
2022-12-18T21:11:54.596Z,63.82
2022-12-18T21:14:24.799Z,63.66
2022-12-18T21:16:56.081Z,63.72
2022-12-18T21:19:25.571Z,63.93
2022-12-18T21:21:53.665Z,64.18
2022-12-18T21:24:20.573Z,63.91
2022-12-18T21:26:49.643Z,63.89
2022-12-18T21:29:19.467Z,64.08
2022-12-18T21:31:53.215Z,64.29
2022-12-18T21:34:22.653Z,64.00
2022-12-18T21:36:49.919Z,64.23
2022-12-18T21:39:20.184Z,63.96
2022-12-18T21:42:09.978Z,63.77
2022-12-18T21:44:41.727Z,63.75
2022-12-18T21:47:22.290Z,64.01
2022-12-18T21:49:50.842Z,64.12
2022-12-18T21:52:18.109Z,64.27
2022-12-18T21:54:47.831Z,64.00
2022-12-18T21:57:19.693Z,64.32
2022-12-18T21:59:46.711Z,64.34
2022-12-18T22:02:21.198Z,64.12
2022-12-18T22:04:48.848Z,63.84
2022-12-18T22:07:19.172Z,64.13
2022-12-18T22:09:51.618Z,64.33
2022-12-18T22:12:35.448Z,63.88
2022-12-18T22:15:04.446Z,64.19
2022-12-18T22:17:31.883Z,63.77
2022-12-18T22:19:58.756Z,63.85
2022-12-18T22:22:25.950Z,64.19
2022-12-18T22:24:52.894Z,64.31
2022-12-18T22:27:27.527Z,64.09
2022-12-18T22:30:06.529Z,64.52
2022-12-18T22:32:35.151Z,64.40
2022-12-18T22:35:09.156Z,64.97
2022-12-18T22:37:37.108Z,64.60
2022-12-18T22:40:05.282Z,64.90
2022-12-18T22:42:34.772Z,64.60
2022-12-18T22:45:01.803Z,64.32
2022-12-18T22:47:31.176Z,64.42
2022-12-18T22:49:58.178Z,64.43
2022-12-18T22:52:25.662Z,64.04
2022-12-18T22:54:54.180Z,64.38
2022-12-18T22:57:22.685Z,64.56
2022-12-18T22:59:51.394Z,64.56
2022-12-18T23:02:22.321Z,64.84
2022-12-18T23:04:49.342Z,64.48
2022-12-18T23:07:16.694Z,64.58
2022-12-18T23:09:44.246Z,64.33
2022-12-18T23:12:14.324Z,64.50
2022-12-18T23:14:43.430Z,64.24
2022-12-18T23:17:13.529Z,64.77
2022-12-18T23:19:45.452Z,64.41
2022-12-18T23:22:19.828Z,64.52
2022-12-18T23:24:47.069Z,64.23
2022-12-18T23:27:14.370Z,64.30
2022-12-18T23:29:41.297Z,64.57
2022-12-18T23:32:08.637Z,64.40
2022-12-18T23:34:37.395Z,64.84
2022-12-18T23:37:07.165Z,65.11
2022-12-18T23:39:37.231Z,64.88
2022-12-18T23:42:09.871Z,64.70
2022-12-18T23:44:43.456Z,64.35
2022-12-18T23:47:12.149Z,64.49
2022-12-18T23:49:40.542Z,64.73
2022-12-18T23:52:10.729Z,64.62
2022-12-18T23:54:39.768Z,64.70
2022-12-18T23:57:07.002Z,64.01
2022-12-18T23:59:38.840Z,64.08
